createdAt,value
2022-12-03T00:00:13.903Z,1.90
2022-12-03T00:02:41.981Z,1.88
2022-12-03T00:05:11.061Z,1.87
2022-12-03T00:07:39.011Z,1.91
2022-12-03T00:10:09.307Z,1.96
2022-12-03T00:12:37.019Z,1.97
2022-12-03T00:15:05.787Z,2.01
2022-12-03T00:17:33.629Z,1.93
2022-12-03T00:20:01.639Z,1.92
2022-12-03T00:22:29.372Z,1.91
2022-12-03T00:24:57.160Z,1.96
2022-12-03T00:27:26.255Z,2.00
2022-12-03T00:29:53.995Z,1.99
2022-12-03T00:32:21.690Z,2.05
2022-12-03T00:34:49.443Z,2.02
2022-12-03T00:37:17.208Z,2.02
2022-12-03T00:39:44.956Z,1.98
2022-12-03T00:42:12.705Z,1.97
2022-12-03T00:44:41.785Z,1.98
2022-12-03T00:47:10.750Z,2.01
2022-12-03T00:49:38.841Z,2.03
2022-12-03T00:52:06.588Z,1.98
2022-12-03T00:54:34.498Z,1.97
2022-12-03T00:57:02.317Z,1.97
2022-12-03T00:59:30.040Z,1.98
2022-12-03T01:01:59.235Z,2.02
2022-12-03T01:04:27.090Z,2.01
2022-12-03T01:06:54.872Z,2.03
2022-12-03T01:09:22.816Z,2.03
2022-12-03T01:11:50.520Z,2.06
2022-12-03T01:14:20.591Z,2.07
2022-12-03T01:16:49.052Z,1.99
2022-12-03T01:19:19.406Z,1.99
2022-12-03T01:21:50.662Z,1.97
2022-12-03T01:24:18.979Z,1.96
2022-12-03T01:26:46.767Z,2.00
2022-12-03T01:29:15.133Z,2.02
2022-12-03T01:32:00.930Z,2.01
2022-12-03T01:34:30.023Z,2.02
2022-12-03T01:36:57.952Z,2.05
2022-12-03T01:39:25.908Z,2.07
2022-12-03T01:41:55.200Z,2.06
2022-12-03T01:44:24.977Z,2.10
2022-12-03T01:46:55.734Z,2.08
2022-12-03T01:49:26.579Z,2.02
2022-12-03T01:51:57.079Z,2.02
2022-12-03T01:54:29.305Z,2.03
2022-12-03T01:56:57.431Z,2.00
2022-12-03T01:59:34.036Z,2.05
2022-12-03T02:02:09.577Z,2.04
2022-12-03T02:04:37.344Z,2.05
2022-12-03T02:07:23.674Z,2.06
2022-12-03T02:09:51.951Z,2.09
2022-12-03T02:12:29.576Z,2.09
2022-12-03T02:14:57.840Z,2.05
2022-12-03T02:17:25.772Z,2.11
2022-12-03T02:19:54.540Z,2.02
2022-12-03T02:22:32.960Z,2.03
2022-12-03T02:25:24.880Z,2.03
2022-12-03T02:27:54.808Z,2.03
2022-12-03T02:30:26.051Z,2.06
2022-12-03T02:32:55.035Z,2.04
2022-12-03T02:35:25.343Z,2.09
2022-12-03T02:37:58.079Z,2.14
2022-12-03T02:40:30.023Z,2.12
2022-12-03T02:42:59.711Z,2.10
2022-12-03T02:45:30.498Z,2.15
2022-12-03T02:48:01.150Z,2.14
2022-12-03T02:50:32.365Z,2.12
2022-12-03T02:53:02.652Z,2.07
2022-12-03T02:55:37.178Z,2.01
2022-12-03T02:58:06.514Z,1.94
2022-12-03T03:00:35.661Z,1.95
2022-12-03T03:03:05.414Z,1.96
2022-12-03T03:05:34.439Z,1.92
2022-12-03T03:08:03.270Z,1.92
2022-12-03T03:10:35.462Z,1.99
2022-12-03T03:13:06.743Z,2.00
2022-12-03T03:15:36.674Z,2.04
2022-12-03T03:18:04.623Z,2.08
2022-12-03T03:20:32.423Z,2.08
2022-12-03T03:23:07.361Z,2.11
2022-12-03T03:25:36.492Z,2.15
2022-12-03T03:28:04.477Z,2.13
2022-12-03T03:30:32.624Z,2.11
2022-12-03T03:33:00.557Z,2.15
2022-12-03T03:35:28.856Z,2.14
2022-12-03T03:37:58.699Z,2.11
2022-12-03T03:40:27.348Z,2.08
2022-12-03T03:42:57.152Z,2.04
2022-12-03T03:45:29.068Z,2.07
2022-12-03T03:47:58.452Z,2.10
2022-12-03T03:50:27.748Z,2.12
2022-12-03T03:52:56.668Z,2.10
2022-12-03T03:55:24.875Z,2.06
2022-12-03T03:57:52.828Z,2.05
2022-12-03T04:00:22.112Z,2.06
2022-12-03T04:02:49.869Z,2.10
2022-12-03T04:05:19.440Z,2.13
2022-12-03T04:07:47.468Z,2.14
2022-12-03T04:10:32.623Z,2.11
2022-12-03T04:13:01.645Z,2.09
2022-12-03T04:15:30.944Z,2.06
2022-12-03T04:18:21.534Z,2.05
2022-12-03T04:20:49.315Z,2.08
2022-12-03T04:23:16.345Z,2.06
2022-12-03T04:26:00.993Z,2.04
2022-12-03T04:28:46.476Z,2.05
2022-12-03T04:31:33.286Z,2.03
2022-12-03T04:34:18.336Z,2.03
2022-12-03T04:36:46.084Z,2.05
2022-12-03T04:39:13.815Z,2.07
2022-12-03T04:41:41.584Z,2.04
2022-12-03T04:44:26.779Z,2.06
2022-12-03T04:46:55.869Z,2.06
2022-12-03T04:49:23.835Z,2.10
2022-12-03T04:51:51.577Z,2.15
2022-12-03T04:54:19.315Z,2.14
2022-12-03T04:56:47.033Z,2.06
2022-12-03T04:59:16.480Z,2.06
2022-12-03T05:01:45.181Z,2.09
2022-12-03T05:04:15.434Z,2.09
2022-12-03T05:06:43.884Z,2.10
2022-12-03T05:09:12.621Z,2.10
2022-12-03T05:11:40.792Z,2.08
2022-12-03T05:14:08.807Z,2.07
2022-12-03T05:16:37.117Z,2.08
2022-12-03T05:19:05.782Z,2.03
2022-12-03T05:21:34.940Z,2.03
2022-12-03T05:24:03.123Z,1.98
2022-12-03T05:26:30.967Z,1.98
2022-12-03T05:28:58.840Z,1.97
2022-12-03T05:31:26.713Z,2.01
2022-12-03T05:33:55.137Z,1.96
2022-12-03T05:36:22.941Z,1.93
2022-12-03T05:38:52.054Z,1.90
2022-12-03T05:41:37.561Z,1.92
2022-12-03T05:44:05.411Z,1.88
2022-12-03T05:46:33.766Z,1.88
2022-12-03T05:49:01.594Z,1.85
2022-12-03T05:51:29.327Z,1.84
2022-12-03T05:54:00.128Z,1.87
2022-12-03T05:56:27.870Z,1.89
2022-12-03T05:58:55.595Z,1.85
2022-12-03T06:01:23.349Z,1.85
2022-12-03T06:03:53.009Z,1.86
2022-12-03T06:06:20.839Z,1.87
2022-12-03T06:08:48.600Z,1.87
2022-12-03T06:11:17.651Z,1.88
2022-12-03T06:13:45.426Z,1.87
2022-12-03T06:16:13.189Z,1.83
2022-12-03T06:18:40.987Z,1.84
2022-12-03T06:21:08.736Z,1.85
2022-12-03T06:23:37.379Z,1.85
2022-12-03T06:26:05.186Z,1.85
2022-12-03T06:28:34.339Z,1.85
2022-12-03T06:31:02.248Z,1.88
2022-12-03T06:33:30.150Z,1.87
2022-12-03T06:35:57.906Z,1.88
2022-12-03T06:38:25.709Z,1.86
2022-12-03T06:40:53.446Z,1.83
2022-12-03T06:43:21.181Z,1.84
2022-12-03T06:45:50.273Z,1.86
2022-12-03T06:48:18.019Z,1.86
2022-12-03T06:50:45.796Z,1.84
2022-12-03T06:53:13.536Z,1.83
2022-12-03T06:55:41.305Z,1.80
2022-12-03T06:58:09.060Z,1.78
2022-12-03T07:00:36.806Z,1.78
2022-12-03T07:03:05.946Z,1.76
2022-12-03T07:05:33.776Z,1.80
2022-12-03T07:08:01.614Z,1.81
2022-12-03T07:10:29.426Z,1.82
2022-12-03T07:12:57.220Z,1.79
2022-12-03T07:15:24.915Z,1.80
2022-12-03T07:17:52.636Z,1.83
2022-12-03T07:20:21.782Z,1.80
2022-12-03T07:22:49.520Z,1.77
2022-12-03T07:25:22.902Z,1.75
2022-12-03T07:27:51.407Z,1.74
2022-12-03T07:30:20.140Z,1.73
2022-12-03T07:32:47.926Z,1.73
2022-12-03T07:35:17.339Z,1.72
2022-12-03T07:37:46.675Z,1.72
2022-12-03T07:40:14.799Z,1.72
2022-12-03T07:42:42.555Z,1.69
2022-12-03T07:45:11.479Z,1.71
2022-12-03T07:47:39.217Z,1.73
2022-12-03T07:50:08.319Z,1.72
2022-12-03T07:52:36.033Z,1.73
2022-12-03T07:55:05.829Z,1.71
2022-12-03T07:57:33.576Z,1.68
2022-12-03T08:00:01.335Z,1.66
2022-12-03T08:02:29.173Z,1.66
2022-12-03T08:04:57.016Z,1.68
2022-12-03T08:07:24.878Z,1.68
2022-12-03T08:09:52.863Z,1.71
2022-12-03T08:12:39.809Z,1.69
2022-12-03T08:15:12.360Z,1.68
2022-12-03T08:17:40.593Z,1.70
2022-12-03T08:20:14.103Z,1.69
2022-12-03T08:22:42.347Z,1.73
2022-12-03T08:25:18.280Z,1.73
2022-12-03T08:27:47.386Z,1.73
2022-12-03T08:30:16.996Z,1.70
2022-12-03T08:32:45.229Z,1.72
2022-12-03T08:35:14.662Z,1.73
2022-12-03T08:37:42.604Z,1.72
2022-12-03T08:40:29.010Z,1.71
2022-12-03T08:42:58.165Z,1.68
2022-12-03T08:45:39.586Z,1.65
2022-12-03T08:48:23.126Z,1.65
2022-12-03T08:50:50.780Z,1.62
2022-12-03T08:53:28.493Z,1.61
2022-12-03T08:55:57.744Z,1.67
2022-12-03T08:58:34.468Z,1.65
2022-12-03T09:01:17.168Z,1.66
2022-12-03T09:03:51.011Z,1.61
2022-12-03T09:06:18.945Z,1.62
2022-12-03T09:08:46.715Z,1.71
2022-12-03T09:11:15.043Z,1.68
2022-12-03T09:13:44.285Z,1.63
2022-12-03T09:16:12.229Z,1.57
2022-12-03T09:18:39.967Z,1.56
2022-12-03T09:21:07.718Z,1.54
2022-12-03T09:23:35.457Z,1.52
2022-12-03T09:26:03.195Z,1.50
2022-12-03T09:28:30.932Z,1.52
2022-12-03T09:31:01.398Z,1.49
2022-12-03T09:33:30.170Z,1.56
2022-12-03T09:35:57.925Z,1.54
2022-12-03T09:38:25.939Z,1.47
2022-12-03T09:40:53.856Z,1.42
2022-12-03T09:43:22.632Z,1.38
2022-12-03T09:45:50.479Z,1.40
2022-12-03T09:48:22.280Z,1.38
2022-12-03T09:50:50.988Z,1.40
2022-12-03T09:53:21.862Z,1.45
2022-12-03T09:55:50.400Z,1.45
2022-12-03T09:58:19.855Z,1.41
2022-12-03T10:00:49.709Z,1.39
2022-12-03T10:03:21.328Z,1.35
2022-12-03T10:05:54.889Z,1.38
2022-12-03T10:08:27.013Z,1.39
2022-12-03T10:10:58.648Z,1.40
2022-12-03T10:13:29.107Z,1.41
2022-12-03T10:15:59.497Z,1.41
2022-12-03T10:18:30.926Z,1.38
2022-12-03T10:21:00.678Z,1.32
2022-12-03T10:23:30.163Z,1.30
2022-12-03T10:26:00.674Z,1.27
2022-12-03T10:28:31.520Z,1.21
2022-12-03T10:31:00.497Z,1.23
2022-12-03T10:33:39.337Z,1.25
2022-12-03T10:36:32.321Z,1.26
2022-12-03T10:39:12.298Z,1.22
2022-12-03T10:41:41.264Z,1.15
2022-12-03T10:44:20.217Z,1.10
2022-12-03T10:47:06.961Z,1.09
2022-12-03T10:49:34.848Z,1.14
2022-12-03T10:52:04.883Z,1.17
2022-12-03T10:54:36.320Z,1.20
2022-12-03T10:57:04.905Z,1.21
2022-12-03T10:59:35.181Z,1.17
2022-12-03T11:02:04.571Z,1.13
2022-12-03T11:04:35.042Z,1.09
2022-12-03T11:07:13.280Z,1.07
2022-12-03T11:09:45.032Z,1.02
2022-12-03T11:12:19.952Z,1.05
2022-12-03T11:15:06.290Z,0.99
2022-12-03T11:17:49.324Z,1.01
2022-12-03T11:21:11.025Z,1.06
2022-12-03T11:24:18.427Z,1.11
2022-12-03T11:27:16.890Z,1.12
2022-12-03T11:29:56.120Z,1.15
2022-12-03T11:33:07.226Z,1.08
2022-12-03T11:35:53.891Z,1.16
2022-12-03T11:38:55.133Z,1.12
2022-12-03T11:41:25.812Z,1.06
2022-12-03T11:44:19.051Z,1.10
2022-12-03T11:46:47.879Z,1.15
2022-12-03T11:49:34.062Z,1.16
2022-12-03T11:52:04.383Z,1.18
2022-12-03T11:54:36.154Z,1.17
2022-12-03T11:57:24.995Z,1.18
2022-12-03T12:00:10.284Z,1.17
2022-12-03T12:02:42.814Z,1.18
2022-12-03T12:05:19.934Z,1.16
2022-12-03T12:07:48.464Z,1.11
2022-12-03T12:10:40.252Z,1.11
2022-12-03T12:13:26.985Z,1.16
2022-12-03T12:15:55.019Z,1.08
2022-12-03T12:18:37.037Z,1.09
2022-12-03T12:21:43.523Z,1.11
2022-12-03T12:24:31.426Z,1.08
2022-12-03T12:27:01.327Z,1.10
2022-12-03T12:29:30.484Z,1.14
2022-12-03T12:32:07.809Z,1.10
2022-12-03T12:34:38.299Z,1.10
2022-12-03T12:37:10.941Z,1.11
2022-12-03T12:39:38.838Z,1.15
2022-12-03T12:42:37.974Z,1.10
2022-12-03T12:45:20.356Z,1.09
2022-12-03T12:47:51.110Z,1.13
2022-12-03T12:50:20.164Z,1.14
2022-12-03T12:52:54.052Z,1.11
2022-12-03T12:55:23.790Z,1.15
2022-12-03T12:57:52.315Z,1.15
2022-12-03T13:00:23.812Z,1.16
2022-12-03T13:02:55.789Z,1.13
2022-12-03T13:05:27.618Z,1.14
2022-12-03T13:07:56.258Z,1.10
2022-12-03T13:10:42.540Z,1.10
2022-12-03T13:13:21.495Z,1.11
2022-12-03T13:15:58.315Z,1.08
2022-12-03T13:18:34.107Z,1.03
2022-12-03T13:21:12.479Z,0.99
2022-12-03T13:23:41.626Z,1.04
2022-12-03T13:26:32.931Z,1.04
2022-12-03T13:29:12.870Z,1.02
2022-12-03T13:31:44.406Z,1.05
2022-12-03T13:34:22.815Z,1.08
2022-12-03T13:36:57.478Z,1.11
2022-12-03T13:39:31.706Z,1.12
2022-12-03T13:42:24.068Z,1.12
2022-12-03T13:44:53.007Z,1.07
2022-12-03T13:47:24.751Z,1.08
2022-12-03T13:49:55.451Z,1.06
2022-12-03T13:52:25.896Z,1.03
2022-12-03T13:54:56.023Z,1.01
2022-12-03T13:57:24.275Z,1.04
2022-12-03T13:59:52.581Z,1.02
2022-12-03T14:02:22.139Z,0.94
2022-12-03T14:04:51.349Z,0.94
2022-12-03T14:07:20.784Z,0.93
2022-12-03T14:09:48.524Z,0.86
2022-12-03T14:12:33.390Z,0.84
2022-12-03T14:15:01.561Z,0.85
2022-12-03T14:17:31.261Z,0.80
2022-12-03T14:20:00.912Z,0.81
2022-12-03T14:22:28.954Z,0.82
2022-12-03T14:24:57.443Z,0.82
2022-12-03T14:27:25.318Z,0.78
2022-12-03T14:29:53.694Z,0.80
2022-12-03T14:32:21.836Z,0.80
2022-12-03T14:34:50.941Z,0.76
2022-12-03T14:37:18.720Z,0.72
2022-12-03T14:39:46.462Z,0.69
2022-12-03T14:42:14.276Z,0.70
2022-12-03T14:44:42.165Z,0.70
2022-12-03T14:47:10.027Z,0.71
2022-12-03T14:49:37.854Z,0.68
2022-12-03T14:52:11.340Z,0.66
2022-12-03T14:54:42.121Z,0.69
2022-12-03T14:57:11.297Z,0.64
2022-12-03T14:59:39.188Z,0.64
2022-12-03T15:02:06.980Z,0.65
2022-12-03T15:04:34.974Z,0.70
2022-12-03T15:07:02.793Z,0.72
2022-12-03T15:09:32.034Z,0.63
2022-12-03T15:12:00.009Z,0.59
2022-12-03T15:14:28.077Z,0.58
2022-12-03T15:16:56.168Z,0.61
2022-12-03T15:19:24.005Z,0.59
2022-12-03T15:22:06.833Z,0.60
2022-12-03T15:24:35.978Z,0.60
2022-12-03T15:27:03.763Z,0.63
2022-12-03T15:29:32.884Z,0.68
2022-12-03T15:32:01.069Z,0.74
2022-12-03T15:34:28.844Z,0.68
2022-12-03T15:36:56.601Z,0.63
2022-12-03T15:39:24.424Z,0.55
2022-12-03T15:41:53.560Z,0.57
2022-12-03T15:44:22.423Z,0.63
2022-12-03T15:46:50.146Z,0.57
2022-12-03T15:49:17.911Z,0.59
2022-12-03T15:51:45.730Z,0.60
2022-12-03T15:54:13.491Z,0.54
2022-12-03T15:56:41.221Z,0.52
2022-12-03T15:59:10.360Z,0.54
2022-12-03T16:01:38.201Z,0.51
2022-12-03T16:04:06.287Z,0.52
2022-12-03T16:06:34.072Z,0.54
2022-12-03T16:09:01.878Z,0.52
2022-12-03T16:11:29.683Z,0.51
2022-12-03T16:13:57.415Z,0.55
2022-12-03T16:16:26.589Z,0.53
2022-12-03T16:18:54.527Z,0.44
2022-12-03T16:21:26.642Z,0.44
2022-12-03T16:23:55.328Z,0.45
2022-12-03T16:26:23.219Z,0.43
2022-12-03T16:28:50.956Z,0.40
2022-12-03T16:31:19.119Z,0.42
2022-12-03T16:33:48.625Z,0.41
2022-12-03T16:36:16.571Z,0.42
2022-12-03T16:38:44.348Z,0.38
2022-12-03T16:41:12.096Z,0.32
2022-12-03T16:43:39.877Z,0.33
2022-12-03T16:46:21.349Z,0.32
2022-12-03T16:48:50.907Z,0.32
2022-12-03T16:51:20.015Z,0.34
2022-12-03T16:53:48.163Z,0.34
2022-12-03T16:56:16.372Z,0.33
2022-12-03T16:58:44.771Z,0.33
2022-12-03T17:01:13.179Z,0.29
2022-12-03T17:03:42.169Z,0.29
2022-12-03T17:06:11.289Z,0.31
2022-12-03T17:08:41.046Z,0.33
2022-12-03T17:11:11.008Z,0.29
2022-12-03T17:13:38.742Z,0.28
2022-12-03T17:16:07.311Z,0.31
2022-12-03T17:18:35.091Z,0.34
2022-12-03T17:21:02.855Z,0.36
2022-12-03T17:23:32.018Z,0.34
2022-12-03T17:25:59.829Z,0.30
2022-12-03T17:28:27.629Z,0.31
2022-12-03T17:30:55.424Z,0.27
2022-12-03T17:33:25.004Z,0.21
2022-12-03T17:35:52.829Z,0.20
2022-12-03T17:38:20.647Z,0.23
2022-12-03T17:40:49.754Z,0.22
2022-12-03T17:43:17.496Z,0.20
2022-12-03T17:45:45.213Z,0.22
2022-12-03T17:48:12.966Z,0.25
2022-12-03T17:50:40.830Z,0.29
2022-12-03T17:53:10.398Z,0.26
2022-12-03T17:55:44.651Z,0.23
2022-12-03T17:58:14.904Z,0.22
2022-12-03T18:00:42.708Z,0.24
2022-12-03T18:03:10.512Z,0.32
2022-12-03T18:05:38.434Z,0.29
2022-12-03T18:08:06.971Z,0.26
2022-12-03T18:10:34.857Z,0.20
2022-12-03T18:13:02.691Z,0.19
2022-12-03T18:15:33.260Z,0.20
2022-12-03T18:18:01.639Z,0.20
2022-12-03T18:20:29.568Z,0.19
2022-12-03T18:22:59.066Z,0.19
2022-12-03T18:25:28.933Z,0.19
2022-12-03T18:27:56.751Z,0.22
2022-12-03T18:30:24.596Z,0.26
2022-12-03T18:32:53.682Z,0.23
2022-12-03T18:35:21.615Z,0.30
2022-12-03T18:37:51.057Z,0.36
2022-12-03T18:40:20.818Z,0.35
2022-12-03T18:42:48.603Z,0.31
2022-12-03T18:45:17.020Z,0.29
2022-12-03T18:47:45.108Z,0.26
2022-12-03T18:50:14.925Z,0.23
2022-12-03T18:52:42.706Z,0.20
2022-12-03T18:55:17.480Z,0.20
2022-12-03T18:57:45.600Z,0.24
2022-12-03T19:00:14.934Z,0.24
2022-12-03T19:05:32.939Z,0.11
2022-12-03T19:08:01.003Z,0.12
2022-12-03T19:10:29.151Z,0.11
2022-12-03T19:12:56.948Z,0.10
2022-12-03T19:15:24.772Z,0.11
2022-12-03T19:17:52.561Z,0.15
2022-12-03T19:20:20.546Z,0.08
2022-12-03T19:22:49.692Z,0.14
2022-12-03T19:25:17.572Z,0.11
2022-12-03T19:27:45.377Z,0.10
2022-12-03T19:30:13.922Z,0.08
2022-12-03T19:32:41.674Z,0.10
2022-12-03T19:35:11.298Z,0.07
2022-12-03T19:37:39.276Z,0.04
2022-12-03T19:40:11.182Z,0.03
2022-12-03T19:42:39.162Z,0.01
2022-12-03T19:45:08.143Z,-0.01
2022-12-03T19:47:36.006Z,-0.05
2022-12-03T19:50:03.976Z,-0.08
2022-12-03T19:52:31.904Z,-0.10
2022-12-03T19:54:59.643Z,-0.11
2022-12-03T19:57:29.343Z,-0.11
2022-12-03T19:59:57.475Z,-0.14
2022-12-03T20:02:25.618Z,-0.16
2022-12-03T20:04:53.449Z,-0.16
2022-12-03T20:07:21.256Z,-0.13
2022-12-03T20:09:51.300Z,-0.14
2022-12-03T20:12:19.135Z,-0.17
2022-12-03T20:14:49.862Z,-0.15
2022-12-03T20:17:17.667Z,-0.12
2022-12-03T20:19:45.485Z,-0.11
2022-12-03T20:22:13.316Z,-0.14
2022-12-03T20:24:41.062Z,-0.14
2022-12-03T20:27:08.808Z,-0.14
2022-12-03T20:29:36.592Z,-0.15
2022-12-03T20:32:06.982Z,-0.14
2022-12-03T20:34:35.977Z,-0.10
2022-12-03T20:37:03.956Z,-0.13
2022-12-03T20:39:31.811Z,-0.08
2022-12-03T20:41:59.576Z,-0.06
2022-12-03T20:44:27.393Z,-0.08
2022-12-03T20:46:55.148Z,-0.06
2022-12-03T20:49:24.257Z,-0.12
2022-12-03T20:51:52.008Z,-0.12
2022-12-03T20:54:19.816Z,-0.16
2022-12-03T20:56:47.595Z,-0.13
2022-12-03T20:59:17.305Z,-0.17
2022-12-03T21:01:46.720Z,-0.14
2022-12-03T21:04:16.038Z,-0.12
2022-12-03T21:06:46.592Z,-0.17
2022-12-03T21:09:14.462Z,-0.13
2022-12-03T21:11:42.699Z,-0.13
2022-12-03T21:14:12.477Z,-0.10
2022-12-03T21:19:30.311Z,-0.02
2022-12-03T21:21:59.453Z,0.02
2022-12-03T21:24:27.218Z,0.04
2022-12-03T21:26:55.039Z,-0.03
2022-12-03T21:29:23.180Z,-0.05
2022-12-03T21:31:51.132Z,-0.06
2022-12-03T21:34:18.874Z,-0.04
2022-12-03T21:36:46.795Z,-0.09
2022-12-03T21:39:16.047Z,-0.09
2022-12-03T21:42:34.077Z,-0.12
2022-12-03T21:44:31.670Z,-0.10
2022-12-03T21:47:11.018Z,-0.09
2022-12-03T21:49:40.848Z,-0.08
2022-12-03T21:52:08.583Z,-0.18
2022-12-03T21:54:37.772Z,-0.22
2022-12-03T21:57:05.503Z,-0.22
2022-12-03T21:59:33.263Z,-0.22
2022-12-03T22:02:01.128Z,-0.23
2022-12-03T22:04:29.048Z,-0.23
2022-12-03T22:06:56.860Z,-0.28
2022-12-03T22:09:26.723Z,-0.24
2022-12-03T22:11:57.619Z,-0.23
2022-12-03T22:14:25.474Z,-0.18
2022-12-03T22:16:53.237Z,-0.24
2022-12-03T22:19:23.439Z,-0.23
2022-12-03T22:21:51.234Z,-0.23
2022-12-03T22:24:19.501Z,-0.21
2022-12-03T22:26:48.055Z,-0.26
2022-12-03T22:29:17.172Z,-0.30
2022-12-03T22:31:45.308Z,-0.26
2022-12-03T22:34:13.042Z,-0.23
2022-12-03T22:36:41.094Z,-0.24
2022-12-03T22:39:08.911Z,-0.24
2022-12-03T22:41:36.832Z,-0.25
2022-12-03T22:44:04.645Z,-0.23
2022-12-03T22:46:33.832Z,-0.22
2022-12-03T22:49:06.843Z,-0.16
2022-12-03T22:51:35.831Z,-0.12
2022-12-03T22:54:03.755Z,-0.10
2022-12-03T22:56:32.461Z,-0.11
2022-12-03T22:59:00.338Z,-0.14
2022-12-03T23:01:30.573Z,-0.18
2022-12-03T23:04:00.210Z,-0.13
2022-12-03T23:06:29.173Z,-0.13
2022-12-03T23:08:57.632Z,-0.14
2022-12-03T23:11:25.733Z,-0.16
2022-12-03T23:13:53.589Z,-0.18
2022-12-03T23:16:24.301Z,-0.16
2022-12-03T23:18:52.131Z,-0.14
2022-12-03T23:21:29.429Z,-0.11
2022-12-03T23:23:58.193Z,-0.10
2022-12-03T23:26:26.236Z,-0.15
2022-12-03T23:28:54.099Z,-0.18
2022-12-03T23:31:24.454Z,-0.16
2022-12-03T23:33:53.073Z,-0.15
2022-12-03T23:36:23.295Z,-0.13
2022-12-03T23:38:51.155Z,-0.11
2022-12-03T23:41:21.168Z,-0.11
2022-12-03T23:43:49.044Z,-0.06
2022-12-03T23:46:18.118Z,-0.08
2022-12-03T23:48:46.408Z,-0.03
2022-12-03T23:51:16.106Z,-0.08
2022-12-03T23:53:45.720Z,-0.11
2022-12-03T23:56:15.616Z,-0.07
2022-12-03T23:58:43.500Z,-0.07
